createdAt,value
2023-03-06T00:01:34.293Z,96913.09
2023-03-06T00:04:00.902Z,96918.97
2023-03-06T00:06:27.570Z,96915.81
2023-03-06T00:08:54.626Z,96920.69
2023-03-06T00:11:21.289Z,96914.66
2023-03-06T00:13:47.919Z,96906.94
2023-03-06T00:16:14.987Z,96912.41
2023-03-06T00:18:44.015Z,96912.59
2023-03-06T00:21:10.628Z,96909.28
2023-03-06T00:23:37.275Z,96904.59
2023-03-06T00:26:09.993Z,96914.50
2023-03-06T00:28:38.113Z,96903.16
2023-03-06T00:31:04.937Z,96903.72
2023-03-06T00:33:31.572Z,96896.31
2023-03-06T00:35:58.221Z,96900.78
2023-03-06T00:38:27.511Z,96893.69
2023-03-06T00:40:56.383Z,96901.72
2023-03-06T00:43:23.025Z,96900.53
2023-03-06T00:45:49.656Z,96897.91
2023-03-06T00:48:17.364Z,96890.81
2023-03-06T00:50:44.019Z,96895.66
2023-03-06T00:53:13.219Z,96899.09
2023-03-06T00:55:43.692Z,96893.31
2023-03-06T00:58:10.273Z,96887.03
2023-03-06T01:00:37.460Z,96885.59
2023-03-06T01:03:04.817Z,96889.25
2023-03-06T01:05:35.106Z,96885.59
2023-03-06T01:08:01.759Z,96879.59
2023-03-06T01:10:28.712Z,96875.44
2023-03-06T01:12:55.912Z,96866.69
2023-03-06T01:15:23.195Z,96860.44
2023-03-06T01:17:54.717Z,96865.16
2023-03-06T01:20:21.430Z,96859.59
2023-03-06T01:22:48.106Z,96851.06
2023-03-06T01:25:14.897Z,96860.16
2023-03-06T01:27:42.527Z,96860.16
2023-03-06T01:30:11.336Z,96855.34
2023-03-06T01:32:38.609Z,96848.72
2023-03-06T01:35:06.450Z,96845.91
2023-03-06T01:37:36.046Z,96847.78
2023-03-06T01:40:04.426Z,96853.22
2023-03-06T01:42:32.201Z,96846.50
2023-03-06T01:45:07.188Z,96835.50
2023-03-06T01:47:34.915Z,96840.25
2023-03-06T01:50:04.065Z,96841.88
2023-03-06T01:52:35.530Z,96827.09
2023-03-06T01:55:09.626Z,96822.28
2023-03-06T01:57:44.422Z,96816.75
2023-03-06T02:00:16.839Z,96813.44
2023-03-06T02:03:15.831Z,96807.88
2023-03-06T02:05:43.759Z,96811.88
2023-03-06T02:08:13.226Z,96802.19
2023-03-06T02:10:57.146Z,96804.66
2023-03-06T02:13:23.797Z,96796.88
2023-03-06T02:15:52.012Z,96806.81
2023-03-06T02:18:19.618Z,96790.59
2023-03-06T02:20:51.080Z,96784.94
2023-03-06T02:23:56.653Z,96784.69
2023-03-06T02:26:24.464Z,96787.44
2023-03-06T02:28:51.066Z,96781.63
2023-03-06T02:31:29.097Z,96783.88
2023-03-06T02:34:14.134Z,96780.69
2023-03-06T02:36:49.232Z,96783.50
2023-03-06T02:39:19.991Z,96774.88
2023-03-06T02:41:46.621Z,96775.94
2023-03-06T02:44:14.471Z,96778.19
2023-03-06T02:46:42.401Z,96779.72
2023-03-06T02:49:09.921Z,96780.56
2023-03-06T02:51:36.538Z,96782.59
2023-03-06T02:54:03.176Z,96778.56
2023-03-06T02:56:29.990Z,96777.59
2023-03-06T02:58:57.324Z,96778.31
2023-03-06T03:01:25.105Z,96772.41
2023-03-06T03:03:52.328Z,96775.59
2023-03-06T03:06:20.999Z,96772.91
2023-03-06T03:08:48.764Z,96771.34
2023-03-06T03:11:16.099Z,96773.72
2023-03-06T03:13:44.295Z,96776.66
2023-03-06T03:16:19.047Z,96770.88
2023-03-06T03:18:47.826Z,96766.63
2023-03-06T03:21:16.498Z,96766.75
2023-03-06T03:23:44.335Z,96768.03
2023-03-06T03:26:17.293Z,96766.97
2023-03-06T03:28:48.909Z,96764.13
2023-03-06T03:31:18.404Z,96758.22
2023-03-06T03:33:45.284Z,96765.66
2023-03-06T03:36:12.946Z,96760.38
2023-03-06T03:38:44.306Z,96753.53
2023-03-06T03:41:11.379Z,96753.75
2023-03-06T03:43:38.084Z,96748.44
2023-03-06T03:46:06.039Z,96747.59
2023-03-06T03:48:32.980Z,96747.00
2023-03-06T03:51:13.097Z,96745.00
2023-03-06T03:53:44.952Z,96742.03
2023-03-06T03:56:14.144Z,96739.81
2023-03-06T03:58:50.035Z,96744.06
2023-03-06T04:01:16.952Z,96741.59
2023-03-06T04:03:43.783Z,96736.16
2023-03-06T04:06:11.668Z,96737.69
2023-03-06T04:08:39.122Z,96732.25
2023-03-06T04:11:06.205Z,96734.47
2023-03-06T04:13:32.971Z,96732.94
2023-03-06T04:15:59.946Z,96733.53
2023-03-06T04:18:28.994Z,96729.88
2023-03-06T04:20:59.605Z,96736.03
2023-03-06T04:23:27.900Z,96722.44
2023-03-06T04:25:55.329Z,96717.34
2023-03-06T04:28:22.953Z,96717.97
2023-03-06T04:30:49.935Z,96715.00
2023-03-06T04:33:17.505Z,96717.59
2023-03-06T04:35:44.734Z,96712.50
2023-03-06T04:38:17.480Z,96709.34
2023-03-06T04:40:45.028Z,96711.44
2023-03-06T04:43:12.267Z,96715.72
2023-03-06T04:45:39.073Z,96715.00
2023-03-06T04:48:06.089Z,96714.41
2023-03-06T04:50:32.845Z,96710.28
2023-03-06T04:53:01.842Z,96712.75
2023-03-06T04:55:28.892Z,96716.88
2023-03-06T04:57:56.060Z,96705.31
2023-03-06T05:00:25.250Z,96709.56
2023-03-06T05:02:52.442Z,96708.38
2023-03-06T05:05:19.119Z,96707.44
2023-03-06T05:07:45.828Z,96706.63
2023-03-06T05:10:16.164Z,96699.88
2023-03-06T05:12:43.430Z,96696.47
2023-03-06T05:15:11.662Z,96692.69
2023-03-06T05:17:39.018Z,96694.91
2023-03-06T05:20:10.113Z,96693.03
2023-03-06T05:22:36.793Z,96694.47
2023-03-06T05:25:04.885Z,96691.63
2023-03-06T05:27:31.692Z,96684.53
2023-03-06T05:29:58.568Z,96686.53
2023-03-06T05:32:25.231Z,96680.03
2023-03-06T05:34:51.976Z,96678.38
2023-03-06T05:37:18.640Z,96680.03
2023-03-06T05:39:45.544Z,96675.06
2023-03-06T05:42:12.146Z,96683.09
2023-03-06T05:44:38.746Z,96680.41
2023-03-06T05:47:05.681Z,96679.19
2023-03-06T05:49:34.968Z,96678.50
2023-03-06T05:52:06.717Z,96675.31
2023-03-06T05:54:34.781Z,96678.47
2023-03-06T05:57:02.714Z,96668.22
2023-03-06T05:59:29.344Z,96673.06
2023-03-06T06:01:56.538Z,96675.50
2023-03-06T06:04:25.132Z,96677.66
2023-03-06T06:06:54.456Z,96672.69
2023-03-06T06:09:22.446Z,96680.69
2023-03-06T06:12:09.493Z,96676.28
2023-03-06T06:14:36.410Z,96675.09
2023-03-06T06:17:03.188Z,96676.72
2023-03-06T06:19:31.621Z,96671.00
2023-03-06T06:21:58.695Z,96666.00
2023-03-06T06:24:26.620Z,96669.28
2023-03-06T06:26:55.139Z,96667.59
2023-03-06T06:29:22.904Z,96670.38
2023-03-06T06:31:49.757Z,96666.81
2023-03-06T06:34:16.941Z,96668.94
2023-03-06T06:36:44.127Z,96672.25
2023-03-06T06:39:13.529Z,96672.34
2023-03-06T06:41:56.917Z,96677.88
2023-03-06T06:44:27.141Z,96681.47
2023-03-06T06:49:40.561Z,96682.59
2023-03-06T06:52:07.386Z,96677.09
2023-03-06T06:54:34.777Z,96685.34
2023-03-06T06:57:01.656Z,96683.19
2023-03-06T06:59:28.268Z,96679.69
2023-03-06T07:01:54.877Z,96668.13
2023-03-06T07:04:21.585Z,96670.53
2023-03-06T07:06:48.420Z,96670.19
2023-03-06T07:09:15.036Z,96668.06
2023-03-06T07:11:41.724Z,96664.25
2023-03-06T07:14:08.576Z,96658.69
2023-03-06T07:16:35.293Z,96660.66
2023-03-06T07:19:03.339Z,96663.34
2023-03-06T07:21:30.406Z,96662.81
2023-03-06T07:23:57.689Z,96663.66
2023-03-06T07:26:28.010Z,96669.78
2023-03-06T07:28:55.037Z,96670.22
2023-03-06T07:31:24.475Z,96668.06
2023-03-06T07:33:52.870Z,96680.16
2023-03-06T07:36:20.987Z,96673.19
2023-03-06T07:38:48.008Z,96679.53
2023-03-06T07:41:16.370Z,96665.59
2023-03-06T07:43:45.132Z,96667.97
2023-03-06T07:46:14.179Z,96660.94
2023-03-06T07:48:41.733Z,96664.94
2023-03-06T07:51:14.193Z,96665.47
2023-03-06T07:53:40.888Z,96660.66
2023-03-06T07:56:09.061Z,96660.81
2023-03-06T07:58:37.742Z,96654.22
2023-03-06T08:01:11.820Z,96658.88
2023-03-06T08:03:39.222Z,96661.06
2023-03-06T08:06:12.836Z,96653.91
2023-03-06T08:08:41.086Z,96654.31
2023-03-06T08:11:09.247Z,96650.91
2023-03-06T08:13:36.519Z,96645.09
2023-03-06T08:16:03.399Z,96638.06
2023-03-06T08:18:30.060Z,96639.72
2023-03-06T08:21:11.409Z,96641.63
2023-03-06T08:23:38.867Z,96636.41
2023-03-06T08:26:12.558Z,96640.78
2023-03-06T08:28:39.394Z,96639.03
2023-03-06T08:31:20.084Z,96638.94
2023-03-06T08:33:47.084Z,96635.03
2023-03-06T08:36:13.714Z,96630.88
2023-03-06T08:38:40.385Z,96640.44
2023-03-06T08:41:07.038Z,96635.88
2023-03-06T08:43:35.720Z,96630.41
2023-03-06T08:46:02.636Z,96623.41
2023-03-06T08:48:30.504Z,96637.00
2023-03-06T08:50:57.145Z,96632.34
2023-03-06T08:53:42.145Z,96628.44
2023-03-06T08:56:19.953Z,96623.34
2023-03-06T08:58:47.578Z,96625.38
2023-03-06T09:01:23.245Z,96620.91
2023-03-06T09:03:50.717Z,96620.34
2023-03-06T09:06:17.497Z,96619.63
2023-03-06T09:08:44.634Z,96619.00
2023-03-06T09:11:13.292Z,96625.63
2023-03-06T09:13:40.661Z,96612.25
2023-03-06T09:16:08.922Z,96610.53
2023-03-06T09:18:36.058Z,96610.63
2023-03-06T09:21:05.642Z,96615.19
2023-03-06T09:23:32.693Z,96607.75
2023-03-06T09:26:00.647Z,96610.66
2023-03-06T09:28:27.573Z,96604.09
2023-03-06T09:30:54.723Z,96595.97
2023-03-06T09:33:21.525Z,96599.06
2023-03-06T09:35:51.059Z,96594.69
2023-03-06T09:38:18.888Z,96588.41
2023-03-06T09:40:55.340Z,96586.69
2023-03-06T09:43:29.104Z,96586.97
2023-03-06T09:45:57.172Z,96585.88
2023-03-06T09:48:38.211Z,96587.47
2023-03-06T09:51:15.128Z,96583.72
2023-03-06T09:54:17.150Z,96582.56
2023-03-06T09:56:48.943Z,96578.84
2023-03-06T09:59:23.328Z,96586.31
2023-03-06T10:02:09.488Z,96593.22
2023-03-06T10:04:42.456Z,96575.31
2023-03-06T10:07:21.567Z,96575.38
2023-03-06T10:09:57.182Z,96575.41
2023-03-06T10:12:35.646Z,96569.97
2023-03-06T10:15:19.539Z,96565.78
2023-03-06T10:17:46.288Z,96559.84
2023-03-06T10:20:19.018Z,96565.44
2023-03-06T10:22:52.538Z,96565.56
2023-03-06T10:25:33.519Z,96564.38
2023-03-06T10:28:12.344Z,96555.56
2023-03-06T10:31:00.433Z,96547.91
2023-03-06T10:33:46.755Z,96554.75
2023-03-06T10:36:18.655Z,96539.44
2023-03-06T10:38:48.376Z,96545.59
2023-03-06T10:41:35.232Z,96547.22
2023-03-06T10:44:04.986Z,96543.66
2023-03-06T10:46:37.275Z,96538.25
2023-03-06T10:49:24.722Z,96546.59
2023-03-06T10:52:03.394Z,96541.06
2023-03-06T10:54:33.378Z,96525.13
2023-03-06T10:57:18.807Z,96527.16
2023-03-06T10:59:54.506Z,96518.97
2023-03-06T11:02:25.912Z,96511.97
2023-03-06T11:04:54.258Z,96515.91
2023-03-06T11:07:34.825Z,96508.84
2023-03-06T11:10:20.940Z,96510.16
2023-03-06T11:13:02.990Z,96507.00
2023-03-06T11:15:30.122Z,96505.34
2023-03-06T11:18:04.902Z,96502.34
2023-03-06T11:20:51.158Z,96495.03
2023-03-06T11:23:21.045Z,96499.47
2023-03-06T11:25:54.756Z,96499.94
2023-03-06T11:28:27.413Z,96492.78
2023-03-06T11:31:00.274Z,96485.19
2023-03-06T11:33:36.348Z,96469.81
2023-03-06T11:36:12.070Z,96478.91
2023-03-06T11:38:49.451Z,96469.06
2023-03-06T11:41:26.745Z,96461.94
2023-03-06T11:43:58.015Z,96464.09
2023-03-06T11:46:33.227Z,96461.56
2023-03-06T11:49:16.949Z,96454.94
2023-03-06T11:51:51.511Z,96448.47
2023-03-06T11:54:18.141Z,96449.06
2023-03-06T11:56:55.139Z,96453.22
2023-03-06T11:59:59.658Z,96446.78
2023-03-06T12:02:39.911Z,96441.28
2023-03-06T12:05:32.674Z,96441.91
2023-03-06T12:08:37.262Z,96444.69
2023-03-06T12:14:19.308Z,96436.88
2023-03-06T12:17:28.973Z,96434.63
2023-03-06T12:20:07.904Z,96445.47
2023-03-06T12:22:57.975Z,96432.91
2023-03-06T12:25:36.589Z,96428.84
2023-03-06T12:28:29.676Z,96431.41
2023-03-06T12:31:04.703Z,96428.94
2023-03-06T12:33:58.611Z,96425.72
2023-03-06T12:36:52.721Z,96429.75
2023-03-06T12:39:43.102Z,96428.69
2023-03-06T12:42:48.580Z,96425.44
2023-03-06T12:45:21.405Z,96430.03
2023-03-06T12:47:51.289Z,96427.06
2023-03-06T12:50:26.161Z,96418.16
2023-03-06T12:52:56.033Z,96423.75
2023-03-06T12:55:25.911Z,96425.47
2023-03-06T12:57:53.963Z,96421.28
2023-03-06T13:00:33.965Z,96424.31
2023-03-06T13:03:44.884Z,96419.59
2023-03-06T13:06:44.989Z,96420.44
2023-03-06T13:09:29.676Z,96414.22
2023-03-06T13:12:25.202Z,96416.47
2023-03-06T13:15:30.474Z,96414.75
2023-03-06T13:17:57.327Z,96413.41
2023-03-06T13:20:39.452Z,96415.06
2023-03-06T13:23:35.139Z,96412.72
2023-03-06T13:26:25.933Z,96405.00
2023-03-06T13:28:57.915Z,96408.28
2023-03-06T13:31:33.888Z,96409.19
2023-03-06T13:34:06.233Z,96404.63
2023-03-06T13:36:33.646Z,96411.53
2023-03-06T13:39:11.001Z,96406.41
2023-03-06T13:41:44.982Z,96412.44
2023-03-06T13:44:40.776Z,96399.72
2023-03-06T13:47:30.960Z,96403.47
2023-03-06T13:49:58.929Z,96397.22
2023-03-06T13:52:38.277Z,96401.25
2023-03-06T13:55:29.949Z,96394.84
2023-03-06T13:57:56.540Z,96390.22
2023-03-06T14:01:00.360Z,96386.63
2023-03-06T14:03:48.439Z,96393.38
2023-03-06T14:06:42.337Z,96394.69
2023-03-06T14:09:27.300Z,96385.69
2023-03-06T14:12:16.840Z,96391.56
2023-03-06T14:14:48.670Z,96393.66
2023-03-06T14:17:24.187Z,96393.81
2023-03-06T14:19:51.514Z,96388.38
2023-03-06T14:22:23.035Z,96392.78
2023-03-06T14:25:01.333Z,96386.78
2023-03-06T14:27:51.400Z,96399.81
2023-03-06T14:30:21.309Z,96392.16
2023-03-06T14:32:50.819Z,96392.13
2023-03-06T14:35:29.440Z,96391.97
2023-03-06T14:38:00.640Z,96386.91
2023-03-06T14:40:35.252Z,96391.13
2023-03-06T14:43:26.972Z,96391.25
2023-03-06T14:45:59.658Z,96381.25
2023-03-06T14:48:41.291Z,96386.97
2023-03-06T14:51:17.008Z,96378.91
2023-03-06T14:53:45.711Z,96382.59
2023-03-06T14:56:17.611Z,96380.78
2023-03-06T14:59:01.168Z,96388.97
2023-03-06T15:01:40.466Z,96392.41
2023-03-06T15:04:36.621Z,96385.56
2023-03-06T15:07:09.476Z,96394.28
2023-03-06T15:09:38.537Z,96390.34
2023-03-06T15:12:31.116Z,96386.03
2023-03-06T15:15:03.941Z,96394.22
2023-03-06T15:17:38.104Z,96388.31
2023-03-06T15:20:08.023Z,96392.88
2023-03-06T15:22:41.827Z,96379.72
2023-03-06T15:25:20.658Z,96383.56
2023-03-06T15:27:50.444Z,96389.81
2023-03-06T15:30:33.679Z,96385.41
2023-03-06T15:33:09.229Z,96382.00
2023-03-06T15:35:37.952Z,96385.72
2023-03-06T15:38:39.354Z,96383.47
2023-03-06T15:41:07.660Z,96382.59
2023-03-06T15:43:40.669Z,96391.34
2023-03-06T15:46:07.732Z,96396.19
2023-03-06T15:48:35.427Z,96391.59
2023-03-06T15:51:03.338Z,96397.97
2023-03-06T15:53:30.449Z,96399.69
2023-03-06T15:55:58.731Z,96394.94
2023-03-06T15:58:30.659Z,96391.50
2023-03-06T16:00:57.372Z,96388.78
2023-03-06T16:03:23.982Z,96396.94
2023-03-06T16:05:50.622Z,96398.84
2023-03-06T16:08:17.275Z,96389.94
2023-03-06T16:10:45.649Z,96397.59
2023-03-06T16:13:22.049Z,96392.94
2023-03-06T16:15:50.347Z,96394.75
2023-03-06T16:18:18.202Z,96395.06
2023-03-06T16:20:44.914Z,96387.78
2023-03-06T16:23:11.621Z,96383.63
2023-03-06T16:25:40.846Z,96392.25
2023-03-06T16:28:12.570Z,96391.44
2023-03-06T16:30:39.263Z,96398.09
2023-03-06T16:33:06.082Z,96389.84
2023-03-06T16:35:32.679Z,96390.84
2023-03-06T16:38:00.104Z,96395.03
2023-03-06T16:40:37.737Z,96382.75
2023-03-06T16:43:05.362Z,96391.63
2023-03-06T16:45:36.441Z,96395.81
2023-03-06T16:48:03.657Z,96395.13
2023-03-06T16:50:33.944Z,96388.03
2023-03-06T16:53:00.652Z,96386.84
2023-03-06T16:55:28.106Z,96391.09
2023-03-06T16:57:54.928Z,96404.16
2023-03-06T17:00:24.577Z,96397.97
2023-03-06T17:02:52.351Z,96400.59
2023-03-06T17:05:19.758Z,96406.34
2023-03-06T17:07:47.152Z,96410.59
2023-03-06T17:10:16.668Z,96410.75
2023-03-06T17:12:43.609Z,96416.28
2023-03-06T17:15:11.556Z,96419.84
2023-03-06T17:17:38.439Z,96409.38
2023-03-06T17:20:11.801Z,96419.03
2023-03-06T17:22:38.823Z,96417.41
2023-03-06T17:25:06.858Z,96416.31
2023-03-06T17:27:34.494Z,96419.59
2023-03-06T17:30:01.371Z,96426.47
2023-03-06T17:32:28.491Z,96428.28
2023-03-06T17:34:55.164Z,96432.53
2023-03-06T17:37:21.906Z,96437.75
2023-03-06T17:39:48.563Z,96437.75
2023-03-06T17:42:15.578Z,96439.38
2023-03-06T17:44:42.166Z,96438.56
2023-03-06T17:47:08.746Z,96449.19
2023-03-06T17:49:35.466Z,96446.84
2023-03-06T17:52:02.868Z,96445.72
2023-03-06T17:54:30.136Z,96440.81
2023-03-06T17:57:01.060Z,96450.53
2023-03-06T17:59:28.308Z,96443.53
2023-03-06T18:01:59.104Z,96439.16
2023-03-06T18:04:26.497Z,96454.25
2023-03-06T18:06:53.271Z,96450.03
2023-03-06T18:09:20.049Z,96445.63
2023-03-06T18:11:46.702Z,96454.25
2023-03-06T18:14:13.386Z,96450.03
2023-03-06T18:16:40.100Z,96457.31
2023-03-06T18:19:06.777Z,96452.91
2023-03-06T18:21:33.392Z,96458.19
2023-03-06T18:24:00.091Z,96454.88
2023-03-06T18:26:28.518Z,96451.44
2023-03-06T18:29:04.411Z,96448.53
2023-03-06T18:31:34.803Z,96443.47
2023-03-06T18:34:04.722Z,96448.03
2023-03-06T18:36:33.152Z,96446.09
2023-03-06T18:39:03.610Z,96438.69
2023-03-06T18:41:31.047Z,96441.56
2023-03-06T18:43:59.628Z,96437.31
2023-03-06T18:46:30.762Z,96447.00
2023-03-06T18:48:57.411Z,96452.22
2023-03-06T18:51:24.040Z,96448.06
2023-03-06T18:53:50.681Z,96464.59
2023-03-06T18:56:20.277Z,96459.06
2023-03-06T18:58:47.488Z,96454.97
2023-03-06T19:01:14.537Z,96466.91
2023-03-06T19:03:41.584Z,96467.72
2023-03-06T19:06:10.776Z,96468.69
2023-03-06T19:08:38.633Z,96483.00
2023-03-06T19:11:10.859Z,96480.00
2023-03-06T19:13:38.424Z,96477.81
2023-03-06T19:16:06.052Z,96481.78
2023-03-06T19:18:33.021Z,96488.66
2023-03-06T19:21:16.348Z,96496.91
2023-03-06T19:23:43.331Z,96493.63
2023-03-06T19:26:10.763Z,96498.97
2023-03-06T19:28:39.511Z,96491.69
2023-03-06T19:31:12.795Z,96487.44
2023-03-06T19:33:40.001Z,96487.97
2023-03-06T19:36:09.534Z,96485.25
2023-03-06T19:38:36.560Z,96481.13
2023-03-06T19:41:03.708Z,96489.63
2023-03-06T19:43:31.156Z,96491.56
2023-03-06T19:45:58.270Z,96497.63
2023-03-06T19:48:25.209Z,96498.31
2023-03-06T19:50:52.388Z,96497.63
2023-03-06T19:53:19.417Z,96494.47
2023-03-06T19:55:46.292Z,96499.56
2023-03-06T19:58:12.916Z,96502.19
2023-03-06T20:00:39.657Z,96501.06
2023-03-06T20:03:06.348Z,96500.38
2023-03-06T20:05:33.081Z,96502.72
2023-03-06T20:07:59.662Z,96500.53
2023-03-06T20:10:26.604Z,96501.91
2023-03-06T20:12:53.538Z,96498.19
2023-03-06T20:15:22.259Z,96505.47
2023-03-06T20:17:52.089Z,96507.25
2023-03-06T20:20:21.442Z,96517.00
2023-03-06T20:22:48.500Z,96520.69
2023-03-06T20:25:15.558Z,96522.63
2023-03-06T20:27:42.605Z,96527.84
2023-03-06T20:30:09.755Z,96528.66
2023-03-06T20:32:38.585Z,96533.63
2023-03-06T20:35:05.915Z,96534.44
2023-03-06T20:37:34.944Z,96532.94
2023-03-06T20:40:01.853Z,96526.50
2023-03-06T20:42:33.816Z,96542.13
2023-03-06T20:45:00.664Z,96532.25
2023-03-06T20:47:27.681Z,96533.22
2023-03-06T20:49:54.750Z,96533.75
2023-03-06T20:52:21.456Z,96533.75
2023-03-06T20:54:48.307Z,96535.38
2023-03-06T20:57:15.104Z,96533.88
2023-03-06T20:59:45.189Z,96533.47
2023-03-06T21:02:15.363Z,96536.66
2023-03-06T21:04:42.218Z,96539.66
2023-03-06T21:07:09.289Z,96542.13
2023-03-06T21:09:37.751Z,96537.19
2023-03-06T21:12:05.325Z,96541.59
2023-03-06T21:14:32.117Z,96533.34
2023-03-06T21:17:01.321Z,96531.84
2023-03-06T21:19:28.390Z,96539.78
2023-03-06T21:21:55.409Z,96542.13
2023-03-06T21:24:24.799Z,96543.91
2023-03-06T21:26:53.985Z,96542.69
2023-03-06T21:29:23.041Z,96536.78
2023-03-06T21:31:49.799Z,96540.88
2023-03-06T21:34:19.121Z,96531.28
2023-03-06T21:36:45.776Z,96538.81
2023-03-06T21:39:12.475Z,96534.16
2023-03-06T21:41:40.523Z,96533.88
2023-03-06T21:44:07.740Z,96535.50
2023-03-06T21:46:35.169Z,96532.66
2023-03-06T21:49:04.344Z,96530.00
2023-03-06T21:51:31.708Z,96540.72
2023-03-06T21:53:59.074Z,96543.03
2023-03-06T21:56:28.368Z,96543.75
2023-03-06T21:58:56.298Z,96545.41
2023-03-06T22:01:29.060Z,96533.59
2023-03-06T22:04:00.508Z,96539.63
2023-03-06T22:06:29.487Z,96535.78
2023-03-06T22:08:57.332Z,96537.53
2023-03-06T22:11:25.813Z,96533.84
2023-03-06T22:13:55.062Z,96529.47
2023-03-06T22:16:21.983Z,96536.72
2023-03-06T22:18:50.664Z,96539.34
2023-03-06T22:21:19.588Z,96538.78
2023-03-06T22:23:57.726Z,96546.22
2023-03-06T22:26:26.328Z,96541.69
2023-03-06T22:28:53.358Z,96539.19
2023-03-06T22:31:25.603Z,96547.00
2023-03-06T22:33:53.910Z,96549.75
2023-03-06T22:36:21.909Z,96552.25
2023-03-06T22:38:49.213Z,96541.00
2023-03-06T22:41:17.630Z,96541.69
2023-03-06T22:43:44.293Z,96530.16
2023-03-06T22:46:16.124Z,96537.28
2023-03-06T22:48:43.576Z,96538.22
2023-03-06T22:51:13.164Z,96534.09
2023-03-06T22:53:40.618Z,96532.88
2023-03-06T22:56:09.776Z,96529.19
2023-03-06T22:58:37.538Z,96530.00
2023-03-06T23:01:13.415Z,96534.81
2023-03-06T23:03:42.269Z,96537.41
2023-03-06T23:06:23.672Z,96536.47
2023-03-06T23:08:57.266Z,96552.53
2023-03-06T23:11:24.960Z,96559.78
2023-03-06T23:14:14.956Z,96563.19
2023-03-06T23:17:00.346Z,96562.66
2023-03-06T23:19:45.594Z,96561.78
2023-03-06T23:22:30.721Z,96576.47
2023-03-06T23:25:16.371Z,96568.81
2023-03-06T23:27:42.965Z,96570.47
2023-03-06T23:30:10.400Z,96565.09
2023-03-06T23:32:37.117Z,96571.09
2023-03-06T23:35:04.626Z,96568.97
2023-03-06T23:37:31.210Z,96570.97
2023-03-06T23:39:58.158Z,96558.97
2023-03-06T23:42:24.858Z,96565.09
2023-03-06T23:44:51.676Z,96570.41
2023-03-06T23:47:20.034Z,96571.00
2023-03-06T23:49:46.609Z,96563.97
2023-03-06T23:52:13.200Z,96560.94
2023-03-06T23:54:39.817Z,96557.47
2023-03-06T23:57:06.760Z,96562.19
2023-03-06T23:59:33.373Z,96557.25
